createdAt,value
2022-10-25T00:02:24.703Z,95.30
2022-10-25T00:05:14.390Z,95.30
2022-10-25T00:07:59.873Z,95.20
2022-10-25T00:10:45.630Z,95.20
2022-10-25T00:13:31.335Z,95.10
2022-10-25T00:16:18.785Z,94.90
2022-10-25T00:19:05.207Z,94.90
2022-10-25T00:21:50.746Z,95.20
2022-10-25T00:24:35.923Z,95.10
2022-10-25T00:27:21.540Z,95.10
2022-10-25T00:30:08.277Z,95.20
2022-10-25T00:32:54.463Z,95.20
2022-10-25T00:35:40.194Z,95.30
2022-10-25T00:38:25.454Z,95.30
2022-10-25T00:41:12.904Z,95.40
2022-10-25T00:44:35.832Z,95.30
2022-10-25T00:47:21.188Z,95.20
2022-10-25T00:50:58.401Z,95.20
2022-10-25T00:53:43.869Z,95.00
2022-10-25T00:56:33.979Z,94.90
2022-10-25T00:59:24.693Z,94.90
2022-10-25T01:02:11.223Z,94.70
2022-10-25T01:04:56.786Z,94.70
2022-10-25T01:07:42.076Z,94.80
2022-10-25T01:10:27.655Z,94.80
2022-10-25T01:13:13.010Z,94.80
2022-10-25T01:16:10.563Z,94.80
2022-10-25T01:18:56.106Z,94.80
2022-10-25T01:21:49.807Z,94.80
2022-10-25T01:25:03.232Z,94.70
2022-10-25T01:27:59.716Z,94.80
2022-10-25T01:31:06.569Z,94.80
2022-10-25T01:34:06.177Z,95.10
2022-10-25T01:37:11.222Z,95.40
2022-10-25T01:40:08.996Z,95.30
2022-10-25T01:43:03.220Z,95.20
2022-10-25T01:46:11.226Z,95.30
2022-10-25T01:49:04.251Z,95.30
2022-10-25T01:51:49.823Z,95.30
2022-10-25T01:54:36.514Z,95.50
2022-10-25T01:57:50.073Z,95.50
2022-10-25T02:00:53.190Z,95.60
2022-10-25T02:04:06.367Z,95.90
2022-10-25T02:06:54.775Z,95.80
2022-10-25T02:10:03.901Z,95.90
2022-10-25T02:13:02.182Z,96.10
2022-10-25T02:16:02.288Z,96.20
2022-10-25T02:18:53.564Z,96.10
2022-10-25T02:21:40.611Z,96.10
2022-10-25T02:24:28.935Z,96.40
2022-10-25T02:27:15.885Z,96.30
2022-10-25T02:30:01.899Z,96.70
2022-10-25T02:32:50.140Z,96.90
2022-10-25T02:35:35.350Z,96.90
2022-10-25T02:38:21.253Z,96.60
2022-10-25T02:41:07.129Z,96.30
2022-10-25T02:43:52.962Z,96.50
2022-10-25T02:46:38.556Z,96.40
2022-10-25T02:49:24.037Z,96.50
2022-10-25T02:52:09.301Z,96.30
2022-10-25T02:54:57.395Z,96.60
2022-10-25T02:57:48.210Z,96.60
2022-10-25T03:00:33.704Z,96.70
2022-10-25T03:03:19.127Z,96.70
2022-10-25T03:06:05.180Z,96.70
2022-10-25T03:08:50.924Z,96.70
2022-10-25T03:11:36.332Z,96.70
2022-10-25T03:14:21.867Z,96.80
2022-10-25T03:17:09.932Z,96.80
2022-10-25T03:19:55.264Z,96.90
2022-10-25T03:22:41.782Z,96.90
2022-10-25T03:25:27.387Z,97.00
2022-10-25T03:28:12.840Z,96.90
2022-10-25T03:31:00.005Z,96.90
2022-10-25T03:33:45.647Z,96.90
2022-10-25T03:36:34.261Z,96.90
2022-10-25T03:39:29.058Z,97.20
2022-10-25T03:42:14.265Z,97.40
2022-10-25T03:44:59.881Z,97.40
2022-10-25T03:47:46.048Z,97.30
2022-10-25T03:50:34.628Z,97.30
2022-10-25T03:53:20.284Z,97.30
2022-10-25T03:56:05.765Z,97.30
2022-10-25T03:58:50.948Z,97.50
2022-10-25T04:01:36.797Z,97.50
2022-10-25T04:04:22.388Z,97.70
2022-10-25T04:07:07.685Z,97.70
2022-10-25T04:09:53.214Z,97.80
2022-10-25T04:12:38.834Z,98.20
2022-10-25T04:15:24.940Z,98.00
2022-10-25T04:18:10.287Z,98.30
2022-10-25T04:20:57.699Z,98.00
2022-10-25T04:23:43.019Z,98.00
2022-10-25T04:26:29.346Z,97.80
2022-10-25T04:29:20.128Z,98.00
2022-10-25T04:32:06.244Z,98.30
2022-10-25T04:34:51.568Z,98.20
2022-10-25T04:37:37.069Z,98.70
2022-10-25T04:40:24.084Z,98.80
2022-10-25T04:43:10.224Z,98.80
2022-10-25T04:46:00.718Z,98.80
2022-10-25T04:48:46.947Z,99.10
2022-10-25T04:51:32.192Z,99.10
2022-10-25T04:54:17.803Z,98.70
2022-10-25T04:57:03.341Z,98.60
2022-10-25T04:59:49.210Z,98.50
2022-10-25T05:02:34.659Z,98.40
2022-10-25T05:05:21.056Z,98.50
2022-10-25T05:08:06.581Z,98.50
2022-10-25T05:10:55.626Z,98.40
2022-10-25T05:13:42.054Z,98.70
2022-10-25T05:16:27.907Z,98.60
2022-10-25T05:19:13.392Z,98.50
2022-10-25T05:21:58.596Z,98.10
2022-10-25T05:24:49.344Z,97.90
2022-10-25T05:27:39.204Z,97.90
2022-10-25T05:30:24.511Z,98.00
2022-10-25T05:33:10.343Z,98.00
2022-10-25T05:35:55.668Z,98.00
2022-10-25T05:38:41.851Z,98.20
2022-10-25T05:41:29.718Z,98.30
2022-10-25T05:44:18.056Z,98.40
2022-10-25T05:47:03.667Z,98.30
2022-10-25T05:49:49.467Z,98.20
2022-10-25T05:52:34.684Z,98.00
2022-10-25T05:55:22.812Z,97.90
2022-10-25T05:58:15.041Z,97.80
2022-10-25T06:01:01.371Z,97.50
2022-10-25T06:03:54.493Z,97.10
2022-10-25T06:06:41.127Z,96.90
2022-10-25T06:09:26.291Z,97.00
2022-10-25T06:12:11.819Z,96.90
2022-10-25T06:14:57.126Z,97.00
2022-10-25T06:17:42.502Z,97.10
2022-10-25T06:20:28.443Z,96.90
2022-10-25T06:23:14.182Z,96.90
2022-10-25T06:26:02.667Z,97.00
2022-10-25T06:28:48.555Z,97.10
2022-10-25T06:31:34.199Z,97.20
2022-10-25T06:34:20.669Z,97.10
2022-10-25T06:37:06.068Z,97.30
2022-10-25T06:39:51.490Z,97.20
2022-10-25T06:42:37.102Z,97.30
2022-10-25T06:45:24.065Z,97.40
2022-10-25T06:48:09.348Z,97.40
2022-10-25T06:51:05.854Z,97.90
2022-10-25T06:53:59.368Z,98.00
2022-10-25T06:56:44.916Z,97.90
2022-10-25T06:59:30.398Z,97.90
2022-10-25T07:02:15.555Z,97.70
2022-10-25T07:05:01.053Z,98.20
2022-10-25T07:07:52.264Z,97.80
2022-10-25T07:10:37.935Z,97.90
2022-10-25T07:13:24.335Z,97.80
2022-10-25T07:16:11.401Z,97.60
2022-10-25T07:19:03.945Z,97.50
2022-10-25T07:21:52.182Z,97.30
2022-10-25T07:24:37.672Z,97.30
2022-10-25T07:27:23.253Z,97.10
2022-10-25T07:30:09.309Z,97.00
2022-10-25T07:32:54.713Z,96.90
2022-10-25T07:35:52.289Z,97.00
2022-10-25T07:38:46.561Z,97.00
2022-10-25T07:41:31.940Z,97.00
2022-10-25T07:44:24.666Z,96.90
2022-10-25T07:47:10.177Z,97.00
2022-10-25T07:49:57.785Z,96.90
2022-10-25T07:52:43.132Z,96.90
2022-10-25T07:55:28.657Z,97.10
2022-10-25T07:58:14.280Z,96.80
2022-10-25T08:01:01.458Z,97.00
2022-10-25T08:03:47.036Z,96.80
2022-10-25T08:06:32.460Z,96.50
2022-10-25T08:09:36.817Z,96.20
2022-10-25T08:12:23.351Z,96.00
2022-10-25T08:15:09.280Z,96.00
2022-10-25T08:18:02.614Z,96.20
2022-10-25T08:21:04.134Z,96.00
2022-10-25T08:23:50.131Z,95.90
2022-10-25T08:26:37.034Z,95.50
2022-10-25T08:29:25.844Z,95.20
2022-10-25T08:32:12.481Z,95.60
2022-10-25T08:34:57.902Z,95.20
2022-10-25T08:37:43.442Z,95.10
2022-10-25T08:40:45.990Z,95.00
2022-10-25T08:43:47.981Z,94.70
2022-10-25T08:46:52.407Z,94.70
2022-10-25T08:49:49.612Z,94.80
2022-10-25T08:53:00.003Z,94.70
2022-10-25T08:56:05.247Z,94.30
2022-10-25T08:59:04.217Z,94.00
2022-10-25T09:01:55.265Z,94.10
2022-10-25T09:04:40.845Z,93.80
2022-10-25T09:07:49.989Z,93.80
2022-10-25T09:11:30.903Z,93.10
2022-10-25T09:14:46.908Z,93.10
2022-10-25T09:17:32.107Z,92.60
2022-10-25T09:20:41.916Z,92.60
2022-10-25T09:23:33.257Z,91.80
2022-10-25T09:26:39.427Z,92.00
2022-10-25T09:29:53.316Z,92.00
2022-10-25T09:32:43.439Z,91.70
2022-10-25T09:35:45.272Z,91.50
2022-10-25T09:38:33.569Z,91.60
2022-10-25T09:41:21.599Z,91.50
2022-10-25T09:44:15.181Z,91.50
2022-10-25T09:47:05.644Z,91.30
2022-10-25T09:50:05.743Z,91.20
2022-10-25T09:53:01.360Z,91.30
2022-10-25T09:55:57.298Z,91.20
2022-10-25T09:58:49.452Z,91.30
2022-10-25T10:01:39.454Z,91.30
2022-10-25T10:04:37.205Z,91.10
2022-10-25T10:07:37.244Z,91.50
2022-10-25T10:10:32.199Z,90.40
2022-10-25T10:13:38.799Z,90.20
2022-10-25T10:16:31.823Z,90.20
2022-10-25T10:19:22.774Z,90.10
2022-10-25T10:22:15.679Z,89.90
2022-10-25T10:25:02.620Z,90.10
2022-10-25T10:27:55.728Z,89.20
2022-10-25T10:30:41.967Z,89.40
2022-10-25T10:33:33.025Z,89.00
2022-10-25T10:36:30.220Z,89.00
2022-10-25T10:39:23.357Z,88.40
2022-10-25T10:42:17.717Z,89.00
2022-10-25T10:48:21.050Z,87.90
2022-10-25T10:51:25.101Z,88.10
2022-10-25T10:54:30.051Z,88.20
2022-10-25T10:57:29.883Z,87.30
2022-10-25T11:00:28.620Z,87.00
2022-10-25T11:03:48.973Z,86.00
2022-10-25T11:06:45.318Z,85.30
2022-10-25T11:09:33.925Z,85.90
2022-10-25T11:12:20.264Z,83.20
2022-10-25T11:15:11.963Z,80.10
2022-10-25T11:18:01.647Z,80.90
2022-10-25T11:21:28.388Z,80.50
2022-10-25T11:24:25.395Z,76.30
2022-10-25T11:27:31.893Z,74.10
2022-10-25T11:30:26.858Z,74.90
2022-10-25T11:33:18.568Z,73.50
2022-10-25T11:36:23.164Z,67.00
2022-10-25T11:39:48.139Z,66.40
2022-10-25T11:42:59.338Z,68.40
2022-10-25T11:45:48.336Z,67.70
2022-10-25T11:48:48.392Z,67.00
2022-10-25T11:51:56.757Z,64.70
2022-10-25T11:55:03.731Z,62.30
2022-10-25T11:57:56.248Z,62.10
2022-10-25T12:01:42.417Z,64.00
2022-10-25T12:04:29.545Z,66.40
2022-10-25T12:07:26.876Z,68.60
2022-10-25T12:10:30.931Z,67.50
2022-10-25T12:13:30.708Z,68.70
2022-10-25T12:16:19.832Z,68.80
2022-10-25T12:19:15.157Z,68.60
2022-10-25T12:22:07.636Z,66.10
2022-10-25T12:25:02.581Z,65.80
2022-10-25T12:27:54.349Z,66.40
2022-10-25T12:30:44.035Z,61.00
2022-10-25T12:33:40.877Z,57.60
2022-10-25T12:36:40.715Z,57.10
2022-10-25T12:39:33.858Z,56.40
2022-10-25T12:42:24.913Z,58.60
2022-10-25T12:45:42.516Z,57.50
2022-10-25T12:48:30.902Z,53.60
2022-10-25T12:51:43.771Z,51.30
2022-10-25T12:54:50.271Z,50.10
2022-10-25T12:57:54.172Z,47.80
2022-10-25T13:01:13.151Z,48.40
2022-10-25T13:04:35.973Z,48.40
2022-10-25T13:07:23.235Z,45.30
2022-10-25T13:10:21.818Z,44.10
2022-10-25T13:13:13.586Z,44.80
2022-10-25T13:16:01.424Z,47.40
2022-10-25T13:18:47.872Z,50.60
2022-10-25T13:21:53.257Z,53.20
2022-10-25T13:24:43.140Z,51.50
2022-10-25T13:27:33.716Z,49.20
2022-10-25T13:30:32.178Z,51.20
2022-10-25T13:33:22.661Z,50.20
2022-10-25T13:36:09.330Z,48.90
2022-10-25T13:39:07.824Z,49.40
2022-10-25T13:41:55.711Z,49.30
2022-10-25T13:44:55.710Z,47.50
2022-10-25T13:47:47.696Z,45.80
2022-10-25T13:50:45.997Z,44.50
2022-10-25T13:53:37.897Z,44.40
2022-10-25T13:56:24.348Z,42.80
2022-10-25T13:59:37.106Z,45.10
2022-10-25T14:02:25.813Z,43.40
2022-10-25T14:05:11.857Z,41.90
2022-10-25T14:08:18.987Z,41.70
2022-10-25T14:11:18.983Z,41.00
2022-10-25T14:14:27.169Z,40.80
2022-10-25T14:17:35.175Z,39.70
2022-10-25T14:20:28.371Z,40.00
2022-10-25T14:23:21.311Z,39.10
2022-10-25T14:26:14.335Z,39.20
2022-10-25T14:29:14.188Z,39.80
2022-10-25T14:31:59.283Z,39.80
2022-10-25T14:34:50.846Z,39.80
2022-10-25T14:37:48.771Z,40.50
2022-10-25T14:40:34.464Z,39.90
2022-10-25T14:43:30.368Z,40.20
2022-10-25T14:46:18.812Z,41.20
2022-10-25T14:49:09.270Z,44.20
2022-10-25T14:52:01.150Z,47.40
2022-10-25T14:54:54.194Z,50.30
2022-10-25T14:57:39.577Z,52.30
2022-10-25T15:00:25.623Z,52.60
2022-10-25T15:03:12.963Z,52.40
2022-10-25T15:06:00.566Z,51.60
2022-10-25T15:08:50.801Z,51.70
2022-10-25T15:11:37.480Z,53.10
2022-10-25T15:14:23.441Z,52.90
2022-10-25T15:17:35.561Z,51.30
2022-10-25T15:20:20.869Z,49.90
2022-10-25T15:23:21.559Z,50.50
2022-10-25T15:27:01.225Z,51.80
2022-10-25T15:29:49.265Z,51.40
2022-10-25T15:32:36.151Z,52.70
2022-10-25T15:35:25.558Z,53.80
2022-10-25T15:38:11.442Z,53.80
2022-10-25T15:40:56.812Z,54.10
2022-10-25T15:43:42.434Z,53.30
2022-10-25T15:46:33.293Z,53.20
2022-10-25T15:49:19.425Z,53.10
2022-10-25T15:52:10.656Z,53.50
2022-10-25T15:54:55.947Z,53.10
2022-10-25T15:57:41.336Z,53.40
2022-10-25T16:00:30.796Z,54.00
2022-10-25T16:03:24.531Z,55.30
2022-10-25T16:06:13.129Z,57.00
2022-10-25T16:09:01.123Z,58.50
2022-10-25T16:11:51.754Z,59.80
2022-10-25T16:14:37.803Z,61.60
2022-10-25T16:17:34.366Z,63.80
2022-10-25T16:20:26.365Z,65.20
2022-10-25T16:23:11.887Z,67.10
2022-10-25T16:25:58.235Z,68.50
2022-10-25T16:28:43.618Z,69.70
2022-10-25T16:31:31.408Z,71.30
2022-10-25T16:34:17.799Z,72.50
2022-10-25T16:37:05.491Z,73.10
2022-10-25T16:39:53.040Z,73.60
2022-10-25T16:42:38.866Z,74.60
2022-10-25T16:45:30.884Z,74.80
2022-10-25T16:48:18.651Z,75.40
2022-10-25T16:51:12.604Z,76.10
2022-10-25T16:54:01.039Z,76.60
2022-10-25T16:56:46.384Z,77.10
2022-10-25T16:59:31.789Z,77.20
2022-10-25T17:02:22.438Z,77.50
2022-10-25T17:05:12.445Z,77.70
2022-10-25T17:07:58.121Z,78.00
2022-10-25T17:10:46.095Z,79.20
2022-10-25T17:13:31.703Z,78.70
2022-10-25T17:16:19.732Z,79.20
2022-10-25T17:19:07.931Z,79.70
2022-10-25T17:21:59.432Z,80.60
2022-10-25T17:24:45.104Z,81.10
2022-10-25T17:27:31.175Z,81.10
2022-10-25T17:30:16.554Z,81.50
2022-10-25T17:33:03.253Z,81.80
2022-10-25T17:35:48.550Z,82.50
2022-10-25T17:38:34.214Z,82.60
2022-10-25T17:41:19.841Z,83.00
2022-10-25T17:44:09.958Z,83.40
2022-10-25T17:46:56.454Z,84.00
2022-10-25T17:49:44.128Z,84.20
2022-10-25T17:52:34.614Z,84.60
2022-10-25T17:55:22.680Z,85.00
2022-10-25T17:58:07.976Z,85.20
2022-10-25T18:00:54.464Z,85.50
2022-10-25T18:03:45.838Z,86.30
2022-10-25T18:06:31.047Z,86.70
2022-10-25T18:09:17.241Z,87.30
2022-10-25T18:12:04.951Z,87.20
2022-10-25T18:14:55.529Z,87.20
2022-10-25T18:17:41.476Z,87.30
2022-10-25T18:20:26.935Z,87.40
2022-10-25T18:23:13.459Z,87.60
2022-10-25T18:25:59.117Z,87.80
2022-10-25T18:28:44.462Z,88.00
2022-10-25T18:31:30.816Z,88.40
2022-10-25T18:34:16.117Z,88.50
2022-10-25T18:37:01.829Z,88.70
2022-10-25T18:39:48.478Z,89.10
2022-10-25T18:42:35.824Z,89.20
2022-10-25T18:45:21.002Z,89.60
2022-10-25T18:48:06.249Z,89.60
2022-10-25T18:50:51.793Z,89.70
2022-10-25T18:53:39.296Z,89.80
2022-10-25T18:56:25.735Z,90.00
2022-10-25T18:59:11.423Z,90.10
2022-10-25T19:01:56.768Z,90.20
2022-10-25T19:04:42.384Z,90.40
2022-10-25T19:07:32.418Z,90.50
2022-10-25T19:10:17.951Z,90.50
2022-10-25T19:13:04.491Z,90.70
2022-10-25T19:15:49.951Z,90.80
2022-10-25T19:18:37.496Z,90.90
2022-10-25T19:21:22.932Z,90.90
2022-10-25T19:24:11.786Z,91.00
2022-10-25T19:26:57.951Z,91.20
2022-10-25T19:29:43.363Z,91.10
2022-10-25T19:32:33.400Z,91.20
2022-10-25T19:35:19.507Z,91.30
2022-10-25T19:38:05.028Z,91.40
2022-10-25T19:40:50.363Z,91.40
2022-10-25T19:43:36.428Z,91.40
2022-10-25T19:46:21.911Z,91.60
2022-10-25T19:49:07.338Z,91.70
2022-10-25T19:51:52.449Z,91.80
2022-10-25T19:54:37.905Z,91.80
2022-10-25T19:57:23.402Z,91.90
2022-10-25T20:00:11.348Z,91.90
2022-10-25T20:03:01.650Z,91.90
2022-10-25T20:05:46.887Z,92.00
2022-10-25T20:08:34.283Z,92.00
2022-10-25T20:11:20.807Z,92.10
2022-10-25T20:14:05.984Z,92.10
2022-10-25T20:16:51.762Z,92.20
2022-10-25T20:19:37.269Z,92.30
2022-10-25T20:22:22.841Z,92.30
2022-10-25T20:25:08.587Z,92.50
2022-10-25T20:27:54.003Z,92.50
2022-10-25T20:30:42.539Z,92.40
2022-10-25T20:33:28.218Z,92.40
2022-10-25T20:36:13.969Z,92.50
2022-10-25T20:38:59.585Z,92.50
2022-10-25T20:41:47.977Z,92.60
2022-10-25T20:44:33.435Z,92.70
2022-10-25T20:47:19.044Z,92.60
2022-10-25T20:50:04.585Z,92.60
2022-10-25T20:53:09.147Z,92.80
2022-10-25T20:55:56.036Z,92.80
2022-10-25T20:58:41.521Z,93.00
2022-10-25T21:01:26.871Z,92.90
2022-10-25T21:04:12.031Z,92.90
2022-10-25T21:06:57.564Z,92.90
2022-10-25T21:09:48.445Z,92.90
2022-10-25T21:12:34.740Z,93.00
2022-10-25T21:15:20.151Z,92.90
2022-10-25T21:18:05.745Z,93.00
2022-10-25T21:20:52.296Z,93.00
2022-10-25T21:23:37.742Z,93.10
2022-10-25T21:26:23.749Z,93.10
2022-10-25T21:29:09.144Z,93.10
2022-10-25T21:31:54.905Z,93.10
2022-10-25T21:34:40.100Z,93.20
2022-10-25T21:37:25.706Z,93.20
2022-10-25T21:40:11.291Z,93.20
2022-10-25T21:42:57.870Z,93.20
2022-10-25T21:45:43.225Z,93.30
2022-10-25T21:48:28.677Z,93.30
2022-10-25T21:51:14.764Z,93.30
2022-10-25T21:54:01.428Z,93.40
2022-10-25T21:56:46.791Z,93.40
2022-10-25T21:59:32.332Z,93.40
2022-10-25T22:02:17.918Z,93.50
2022-10-25T22:05:03.434Z,93.40
2022-10-25T22:07:55.799Z,93.50
2022-10-25T22:10:43.960Z,93.60
2022-10-25T22:13:29.291Z,93.60
2022-10-25T22:16:18.102Z,93.70
2022-10-25T22:19:13.091Z,93.70
2022-10-25T22:21:58.522Z,93.70
2022-10-25T22:24:44.064Z,93.80
2022-10-25T22:27:29.536Z,93.70
2022-10-25T22:30:15.168Z,93.80
2022-10-25T22:33:00.526Z,93.90
2022-10-25T22:35:45.845Z,94.00
2022-10-25T22:38:31.392Z,94.00
2022-10-25T22:41:19.703Z,94.00
2022-10-25T22:44:05.452Z,94.00
2022-10-25T22:46:51.196Z,94.00
2022-10-25T22:49:36.478Z,94.00
2022-10-25T22:52:21.880Z,94.10
2022-10-25T22:55:10.353Z,94.10
2022-10-25T22:57:55.930Z,94.00
2022-10-25T23:00:41.399Z,94.10
2022-10-25T23:03:27.167Z,94.10
2022-10-25T23:06:14.894Z,94.20
2022-10-25T23:09:02.395Z,94.20
2022-10-25T23:11:49.909Z,94.20
2022-10-25T23:14:35.247Z,94.20
2022-10-25T23:17:20.931Z,94.20
2022-10-25T23:20:06.633Z,94.30
2022-10-25T23:22:52.339Z,94.30
2022-10-25T23:25:37.557Z,94.40
2022-10-25T23:28:23.011Z,94.50
2022-10-25T23:31:11.676Z,94.50
2022-10-25T23:33:59.238Z,94.60
2022-10-25T23:36:44.949Z,94.60
2022-10-25T23:39:33.299Z,94.60
2022-10-25T23:42:18.683Z,94.60
2022-10-25T23:45:05.312Z,94.60
2022-10-25T23:47:51.211Z,94.50
2022-10-25T23:50:36.821Z,94.60
2022-10-25T23:53:22.276Z,94.60
2022-10-25T23:56:13.055Z,94.60
2022-10-25T23:58:58.760Z,94.60
